Portada
METAR-TAF:

METAR-TAF

Aeropuertos :

Aeropuerto de Oslo-Gardermoen

Oslo, Noruega

latitud: 60-12N, longitud: 011-05E, altitud: 208 m

Observación

El informe se hizo hace 18 minutos, a las 00:50 UTC
Viento 10 kt del suroeste
Temperatura 1°C
Humedad 80%
Presión 994 hPa
Visibilidad 10 km o más
sin nubes por debajo de 1500 m y sin presencia de cumulonimbus.

METAR: ENGM 190050Z 22010KT CAVOK 01/M02 Q0994

Hora: 02:08 (01:08 UTC)

Pronóstico

Pronóstico válido del 19 a las 00 UTC al 19 a las 24 UTC
Viento 8 kt del sur
Visibilidad 10 km o más
sin nubes por debajo de 1500 m y sin presencia de cumulonimbus.

TAF: ENGM 1900/1924 19008KT CAVOK

Observaciones y pronósticos meteorológicos de más de 4000 aeropuertos (mensajes METAR y TAF).

Los puntos amarillos y rojos representan las estaciones disponibles.

Ponga el ratón en el punto deseado para ver el nombre de la estación.

Haga clic para ver las observaciones y los pronósticos meteorológicos.

Para cambiar el mapa : haga clic en los botones verdes con una cruz de color negro para hacer un zoom, en el botón verde con un guión para alejar o en las flechas verdes para mapas adyacentes.


METAR-TAF: